createdAt,value
2023-03-04T00:02:14.440Z,24.30
2023-03-04T00:06:14.506Z,24.28
2023-03-04T00:10:14.586Z,24.26
2023-03-04T00:14:14.683Z,24.23
2023-03-04T00:18:14.815Z,24.28
2023-03-04T00:22:14.860Z,24.28
2023-03-04T00:26:14.965Z,24.31
2023-03-04T00:30:15.013Z,24.23
2023-03-04T00:34:15.129Z,24.25
2023-03-04T00:38:15.209Z,24.23
2023-03-04T00:42:15.353Z,24.25
2023-03-04T00:46:15.446Z,24.28
2023-03-04T00:50:15.531Z,24.26
2023-03-04T00:54:15.568Z,24.32
2023-03-04T00:58:15.691Z,24.23
2023-03-04T01:02:15.827Z,24.26
2023-03-04T01:06:16.249Z,24.27
2023-03-04T01:10:15.978Z,24.24
2023-03-04T01:14:16.110Z,24.26
2023-03-04T01:18:16.311Z,24.27
2023-03-04T01:22:16.273Z,24.29
2023-03-04T01:26:16.386Z,24.35
2023-03-04T01:30:16.489Z,24.29
2023-03-04T01:34:16.609Z,24.24
2023-03-04T01:38:16.636Z,24.24
2023-03-04T01:42:16.769Z,24.24
2023-03-04T01:46:16.959Z,24.30
2023-03-04T01:50:16.980Z,24.29
2023-03-04T01:54:17.029Z,24.29
2023-03-04T01:58:17.154Z,24.30
2023-03-04T02:02:17.315Z,24.27
2023-03-04T02:06:17.402Z,24.29
2023-03-04T02:10:17.822Z,24.25
2023-03-04T02:14:17.647Z,24.27
2023-03-04T02:18:17.798Z,24.27
2023-03-04T02:22:17.862Z,24.25
2023-03-04T02:26:17.957Z,24.30
2023-03-04T02:30:18.065Z,24.24
2023-03-04T02:34:18.142Z,24.29
2023-03-04T02:38:18.311Z,24.29
2023-03-04T02:42:18.349Z,24.28
2023-03-04T02:46:18.530Z,24.24
2023-03-04T02:50:18.587Z,24.25
2023-03-04T02:54:18.723Z,24.25
2023-03-04T02:58:18.884Z,24.25
2023-03-04T03:02:18.982Z,24.30
2023-03-04T03:06:19.117Z,24.28
2023-03-04T03:10:19.171Z,24.27
2023-03-04T03:14:19.360Z,24.25
2023-03-04T03:18:19.473Z,24.28
2023-03-04T03:22:19.699Z,24.25
2023-03-04T03:26:19.692Z,24.31
2023-03-04T03:30:19.870Z,24.27
2023-03-04T03:34:19.958Z,24.31
2023-03-04T03:38:20.111Z,24.28
2023-03-04T03:42:20.213Z,24.28
2023-03-04T03:46:20.304Z,24.25
2023-03-04T03:50:20.429Z,24.25
2023-03-04T03:54:20.556Z,24.27
2023-03-04T03:58:20.688Z,24.25
2023-03-04T04:02:20.962Z,24.25
2023-03-04T04:06:20.948Z,24.25
2023-03-04T04:10:21.109Z,24.25
2023-03-04T04:14:21.134Z,24.28
2023-03-04T04:18:21.317Z,24.30
2023-03-04T04:22:21.483Z,24.30
2023-03-04T04:26:21.536Z,24.23
2023-03-04T04:30:21.662Z,24.33
2023-03-04T04:34:21.811Z,24.31
2023-03-04T04:38:21.944Z,24.25
2023-03-04T04:42:22.065Z,24.25
2023-03-04T04:46:22.238Z,24.29
2023-03-04T04:50:22.328Z,24.32
2023-03-04T04:54:22.467Z,24.28
2023-03-04T04:58:22.598Z,24.22
2023-03-04T05:02:22.703Z,24.29
2023-03-04T05:06:22.841Z,24.28
2023-03-04T05:10:23.003Z,24.25
2023-03-04T05:14:23.119Z,24.26
2023-03-04T05:18:23.261Z,24.29
2023-03-04T05:22:23.425Z,24.26
2023-03-04T05:26:23.627Z,24.25
2023-03-04T05:30:23.668Z,24.26
2023-03-04T05:34:23.800Z,24.29
2023-03-04T05:38:23.931Z,24.28
2023-03-04T05:42:24.121Z,24.28
2023-03-04T05:46:24.283Z,24.29
2023-03-04T05:50:24.398Z,24.24
2023-03-04T05:54:24.538Z,24.26
2023-03-04T05:58:24.740Z,24.24
2023-03-04T06:02:24.956Z,24.26
2023-03-04T06:06:25.042Z,24.24
2023-03-04T06:10:25.181Z,24.23
2023-03-04T06:14:25.362Z,24.20
2023-03-04T06:18:25.501Z,24.23
2023-03-04T06:22:25.630Z,24.26
2023-03-04T06:26:25.815Z,24.21
2023-03-04T06:30:25.991Z,24.24
2023-03-04T06:34:26.119Z,24.26
2023-03-04T06:38:26.268Z,24.21
2023-03-04T06:42:26.370Z,24.20
2023-03-04T06:46:28.249Z,24.17
2023-03-04T06:50:26.436Z,24.21
2023-03-04T06:54:26.352Z,24.20
2023-03-04T06:58:26.335Z,24.20
2023-03-04T07:02:26.325Z,24.14
2023-03-04T07:06:26.281Z,24.19
2023-03-04T07:10:26.272Z,24.17
2023-03-04T07:14:26.195Z,24.17
2023-03-04T07:18:26.152Z,24.20
2023-03-04T07:22:26.135Z,24.17
2023-03-04T07:26:26.080Z,24.11
2023-03-04T07:30:26.050Z,24.19
2023-03-04T07:34:26.024Z,24.14
2023-03-04T07:38:25.985Z,24.17
2023-03-04T07:42:26.001Z,24.12
2023-03-04T07:46:25.895Z,24.16
2023-03-04T07:50:25.855Z,24.16
2023-03-04T07:54:25.860Z,24.17
2023-03-04T07:58:25.970Z,24.17
2023-03-04T08:02:26.500Z,24.11
2023-03-04T08:06:26.176Z,24.09
2023-03-04T08:10:26.270Z,24.13
2023-03-04T08:14:26.446Z,24.09
2023-03-04T08:18:26.560Z,24.16
2023-03-04T08:22:26.653Z,24.12
2023-03-04T08:26:26.827Z,24.19
2023-03-04T08:30:26.998Z,24.16
2023-03-04T08:34:26.996Z,24.12
2023-03-04T08:38:27.133Z,24.14
2023-03-04T08:42:27.239Z,24.16
2023-03-04T08:46:27.389Z,24.17
2023-03-04T08:50:27.570Z,24.20
2023-03-04T08:54:27.589Z,24.17
2023-03-04T08:58:27.705Z,24.13
2023-03-04T09:02:28.747Z,24.12
2023-03-04T09:06:27.879Z,24.13
2023-03-04T09:10:27.963Z,24.13
2023-03-04T09:14:28.062Z,24.11
2023-03-04T09:18:28.248Z,24.13
2023-03-04T09:22:28.374Z,24.11
2023-03-04T09:26:28.544Z,24.09
2023-03-04T09:30:29.110Z,24.08
2023-03-04T09:34:28.753Z,24.11
2023-03-04T09:38:28.933Z,24.09
2023-03-04T09:42:29.434Z,24.08
2023-03-04T09:46:29.240Z,24.12
2023-03-04T09:50:29.380Z,24.10
2023-03-04T09:54:29.506Z,24.14
2023-03-04T09:58:29.639Z,24.12
2023-03-04T10:02:29.768Z,24.13
2023-03-04T10:06:29.904Z,24.11
2023-03-04T10:10:30.108Z,24.14
2023-03-04T10:14:30.192Z,24.17
2023-03-04T10:18:30.365Z,24.11
2023-03-04T10:22:30.521Z,24.14
2023-03-04T10:26:30.696Z,24.11
2023-03-04T10:30:30.822Z,24.22
2023-03-04T10:34:30.977Z,24.10
2023-03-04T10:38:31.130Z,24.08
2023-03-04T10:42:31.396Z,24.16
2023-03-04T10:46:31.388Z,24.11
2023-03-04T10:50:31.612Z,24.16
2023-03-04T10:54:31.685Z,24.17
2023-03-04T10:58:31.829Z,24.14
2023-03-04T11:02:31.947Z,24.13
2023-03-04T11:06:32.146Z,24.13
2023-03-04T11:10:32.517Z,24.14
2023-03-04T11:14:32.387Z,24.14
2023-03-04T11:18:32.640Z,24.16
2023-03-04T11:22:32.756Z,24.13
2023-03-04T11:26:32.876Z,24.08
2023-03-04T11:30:33.007Z,24.17
2023-03-04T11:34:33.187Z,24.08
2023-03-04T11:38:33.380Z,24.11
2023-03-04T11:42:33.516Z,24.08
2023-03-04T11:46:33.651Z,24.08
2023-03-04T11:50:33.788Z,24.11
2023-03-04T11:54:33.908Z,24.08
2023-03-04T11:58:34.106Z,24.11
2023-03-04T12:02:34.193Z,24.16
2023-03-04T12:06:34.414Z,24.11
2023-03-04T12:10:34.531Z,24.10
2023-03-04T12:14:34.724Z,24.08
2023-03-04T12:18:34.862Z,24.17
2023-03-04T12:22:34.949Z,24.11
2023-03-04T12:26:35.105Z,24.14
2023-03-04T12:30:35.298Z,24.16
2023-03-04T12:34:35.424Z,24.16
2023-03-04T12:38:35.549Z,24.14
2023-03-04T12:42:35.624Z,24.14
2023-03-04T12:46:35.974Z,24.19
2023-03-04T12:50:35.988Z,24.19
2023-03-04T12:54:36.087Z,24.25
2023-03-04T12:58:36.220Z,24.17
2023-03-04T13:02:36.599Z,24.22
2023-03-04T13:06:36.526Z,24.17
2023-03-04T13:10:36.678Z,24.17
2023-03-04T13:14:36.770Z,24.23
2023-03-04T13:18:36.850Z,24.23
2023-03-04T13:22:36.957Z,24.25
2023-03-04T13:26:37.101Z,24.22
2023-03-04T13:30:37.195Z,24.27
2023-03-04T13:34:37.261Z,24.22
2023-03-04T13:38:37.419Z,24.28
2023-03-04T13:42:37.490Z,24.24
2023-03-04T13:46:37.595Z,24.27
2023-03-04T13:50:37.896Z,24.29
2023-03-04T13:54:37.830Z,24.29
2023-03-04T13:58:37.930Z,24.30
2023-03-04T14:02:38.069Z,24.24
2023-03-04T14:06:38.145Z,24.23
2023-03-04T14:10:38.244Z,24.25
2023-03-04T14:14:38.440Z,24.21
2023-03-04T14:18:38.499Z,24.24
2023-03-04T14:22:38.600Z,24.21
2023-03-04T14:26:38.736Z,24.20
2023-03-04T14:30:43.445Z,24.20
2023-03-04T14:34:39.812Z,24.13
2023-03-04T14:38:38.811Z,24.16
2023-03-04T14:42:38.749Z,24.18
2023-03-04T14:46:39.079Z,24.17
2023-03-04T14:50:38.799Z,24.08
2023-03-04T14:54:38.821Z,24.09
2023-03-04T14:58:38.927Z,24.11
2023-03-04T15:02:38.998Z,24.05
2023-03-04T15:06:39.145Z,24.07
2023-03-04T15:10:39.146Z,24.04
2023-03-04T15:14:39.254Z,24.08
2023-03-04T15:18:39.332Z,24.02
2023-03-04T15:22:39.486Z,24.09
2023-03-04T15:26:39.660Z,24.02
2023-03-04T15:30:39.844Z,23.99
2023-03-04T15:34:39.956Z,24.04
2023-03-04T15:38:40.198Z,23.98
2023-03-04T15:42:40.334Z,24.01
2023-03-04T15:46:40.546Z,24.04
2023-03-04T15:50:40.585Z,23.95
2023-03-04T15:54:40.670Z,24.01
2023-03-04T15:58:40.845Z,24.04
2023-03-04T16:02:40.855Z,23.97
2023-03-04T16:06:40.945Z,23.92
2023-03-04T16:10:40.976Z,24.05
2023-03-04T16:14:41.137Z,24.08
2023-03-04T16:18:41.169Z,24.08
2023-03-04T16:22:41.272Z,24.16
2023-03-04T16:26:41.307Z,24.16
2023-03-04T16:30:41.419Z,24.22
2023-03-04T16:34:41.447Z,24.23
2023-03-04T16:38:41.521Z,24.20
2023-03-04T16:42:41.626Z,24.24
2023-03-04T16:46:41.747Z,24.24
2023-03-04T16:50:41.823Z,24.25
2023-03-04T16:54:41.885Z,24.27
2023-03-04T16:58:41.976Z,24.29
2023-03-04T17:02:42.085Z,24.26
2023-03-04T17:06:42.204Z,24.29
2023-03-04T17:10:42.253Z,24.35
2023-03-04T17:14:42.344Z,24.37
2023-03-04T17:18:42.418Z,24.38
2023-03-04T17:22:42.509Z,24.38
2023-03-04T17:26:42.650Z,24.35
2023-03-04T17:30:42.755Z,24.32
2023-03-04T17:34:42.881Z,24.30
2023-03-04T17:38:43.024Z,24.36
2023-03-04T17:42:43.053Z,24.37
2023-03-04T17:46:43.320Z,24.36
2023-03-04T17:50:43.320Z,24.42
2023-03-04T17:54:43.443Z,24.46
2023-03-04T17:58:43.569Z,24.39
2023-03-04T18:02:43.700Z,24.36
2023-03-04T18:06:43.766Z,24.39
2023-03-04T18:10:43.919Z,24.43
2023-03-04T18:14:44.036Z,24.40
2023-03-04T18:18:44.159Z,24.44
2023-03-04T18:22:44.305Z,24.46
2023-03-04T18:26:44.380Z,24.49
2023-03-04T18:30:44.506Z,24.44
2023-03-04T18:34:44.581Z,24.47
2023-03-04T18:38:44.705Z,24.51
2023-03-04T18:42:44.808Z,24.50
2023-03-04T18:46:44.851Z,24.50
2023-03-04T18:50:45.002Z,24.56
2023-03-04T18:54:45.003Z,24.56
2023-03-04T18:58:45.150Z,24.57
2023-03-04T19:02:45.263Z,24.61
2023-03-04T19:06:45.301Z,24.58
2023-03-04T19:10:45.427Z,24.61
2023-03-04T19:14:45.508Z,24.57
2023-03-04T19:18:45.605Z,24.60
2023-03-04T19:22:45.708Z,24.67
2023-03-04T19:26:45.858Z,24.61
2023-03-04T19:30:45.948Z,24.62
2023-03-04T19:34:46.110Z,24.65
2023-03-04T19:38:46.134Z,24.64
2023-03-04T19:42:46.259Z,24.70
2023-03-04T19:46:46.375Z,24.66
2023-03-04T19:50:46.505Z,24.68
2023-03-04T19:54:46.643Z,24.64
2023-03-04T19:58:46.688Z,24.67
2023-03-04T20:02:46.812Z,24.67
2023-03-04T20:06:46.840Z,24.71
2023-03-04T20:10:46.965Z,24.67
2023-03-04T20:14:47.112Z,24.67
2023-03-04T20:18:47.156Z,24.70
2023-03-04T20:22:47.291Z,24.58
2023-03-04T20:26:47.389Z,24.62
2023-03-04T20:30:47.535Z,24.63
2023-03-04T20:34:47.614Z,24.65
2023-03-04T20:38:47.706Z,24.70
2023-03-04T20:42:48.188Z,24.63
2023-03-04T20:46:47.904Z,24.68
2023-03-04T20:50:48.063Z,24.65
2023-03-04T20:54:48.101Z,24.69
2023-03-04T20:58:48.246Z,24.65
2023-03-04T21:02:48.313Z,24.66
2023-03-04T21:06:48.488Z,24.65
2023-03-04T21:10:48.523Z,24.69
2023-03-04T21:14:48.641Z,24.69
2023-03-04T21:18:48.788Z,24.67
2023-03-04T21:22:48.858Z,24.69
2023-03-04T21:26:48.977Z,24.67
2023-03-04T21:30:49.081Z,24.70
2023-03-04T21:34:49.195Z,24.72
2023-03-04T21:38:49.340Z,24.66
2023-03-04T21:42:49.428Z,24.70
2023-03-04T21:46:49.613Z,24.70
2023-03-04T21:50:49.670Z,24.72
2023-03-04T21:54:49.815Z,24.69
2023-03-04T21:58:49.879Z,24.75
2023-03-04T22:02:50.008Z,24.70
2023-03-04T22:06:50.127Z,24.72
2023-03-04T22:10:50.268Z,24.70
2023-03-04T22:14:50.409Z,24.70
2023-03-04T22:18:50.535Z,24.73
2023-03-04T22:22:50.637Z,24.68
2023-03-04T22:26:50.725Z,24.70
2023-03-04T22:30:50.863Z,24.71
2023-03-04T22:34:51.312Z,24.67
2023-03-04T22:38:51.159Z,24.71
2023-03-04T22:42:51.282Z,24.70
2023-03-04T22:46:51.369Z,24.71
2023-03-04T22:50:51.441Z,24.73
2023-03-04T22:54:51.804Z,24.76
2023-03-04T22:58:51.716Z,24.73
2023-03-04T23:02:51.861Z,24.68
2023-03-04T23:06:51.990Z,24.68
2023-03-04T23:10:52.166Z,24.72
2023-03-04T23:14:52.289Z,24.72
2023-03-04T23:18:52.394Z,24.71
2023-03-04T23:22:52.524Z,24.74
2023-03-04T23:26:52.646Z,24.72
2023-03-04T23:30:52.863Z,24.74
2023-03-04T23:34:52.917Z,24.75
2023-03-04T23:38:53.849Z,24.75
2023-03-04T23:42:53.260Z,24.71
2023-03-04T23:46:53.389Z,24.77
2023-03-04T23:50:53.582Z,24.77
2023-03-04T23:54:53.755Z,24.78
2023-03-04T23:58:53.878Z,24.73
